Time;durP1;ratioP1;P1;durP2;ratioP2;P2;SDS_P1;SDS_P2;PMS_P1;PMS_P2;Temp;Humidity;BMP_temperature;BMP_pressure;BME280_temperature;BME280_humidity;BME280_pressure;Samples;Min_cycle;Max_cycle;Signal;HPM_P1;HPM_P2
2021/11/28 00:01:38;;;;;;;27.02;24.23;;;;;;;6.05;78.73;98554.16;1704443;84;21901;-74
2021/11/28 00:04:06;;;;;;;28.05;25.17;;;;;;;6.02;78.96;98560.00;1704957;84;21000;-76
2021/11/28 00:06:36;;;;;;;24.85;20.52;;;;;;;6.03;79.29;98562.95;1698753;84;21121;-76
2021/11/28 00:14:26;;;;;;;30.82;20.88;;;;;;;6.18;79.32;98565.81;1658895;83;21024;-80
2021/11/28 00:16:52;;;;;;;26.25;23.85;;;;;;;6.08;78.53;98563.02;1716820;82;20941;-78
2021/11/28 00:19:21;;;;;;;21.33;19.12;;;;;;;5.86;78.31;98562.14;1714786;82;21048;-77
2021/11/28 00:21:48;;;;;;;24.45;21.95;;;;;;;5.62;78.43;98563.70;1735741;82;21024;-78
2021/11/28 00:24:15;;;;;;;24.63;18.55;;;;;;;5.36;78.78;98563.59;1712878;82;21050;-79
2021/11/28 00:26:43;;;;;;;24.25;20.00;;;;;;;5.22;79.54;98564.45;1693644;83;21034;-79
2021/11/28 00:29:11;;;;;;;28.70;18.42;;;;;;;5.15;80.17;98569.11;1706680;84;21012;-80
2021/11/28 00:31:39;;;;;;;21.27;17.42;;;;;;;5.13;80.85;98569.34;1685282;84;21581;-79
2021/11/28 00:34:06;;;;;;;22.77;17.90;;;;;;;5.15;81.33;98564.59;1707137;82;21045;-79
2021/11/28 00:36:33;;;;;;;16.62;13.30;;;;;;;5.17;81.60;98568.36;1735957;82;21005;-78
2021/11/28 00:39:00;;;;;;;17.02;13.98;;;;;;;5.26;82.14;98570.90;1736628;82;21035;-79
2021/11/28 00:41:27;;;;;;;20.35;16.15;;;;;;;5.39;82.55;98568.42;1736108;82;21499;-78
2021/11/28 00:43:54;;;;;;;23.38;17.05;;;;;;;5.49;82.34;98568.58;1735790;82;20960;-77
2021/11/28 00:46:21;;;;;;;28.25;25.17;;;;;;;5.50;82.06;98575.01;1735947;82;21041;-73
2021/11/28 00:48:49;;;;;;;29.30;21.12;;;;;;;5.52;81.74;98574.74;1735138;82;21005;-72
2021/11/28 00:53:47;;;;;;;22.15;17.12;;;;;;;5.29;81.39;98577.06;1714589;82;20989;-85
2021/11/28 00:56:14;;;;;;;29.18;20.82;;;;;;;5.22;81.78;98579.91;1736293;82;21052;-76
2021/11/28 00:58:41;;;;;;;29.80;21.45;;;;;;;5.23;82.24;98578.84;1735761;82;21040;-75
2021/11/28 01:01:08;;;;;;;30.80;24.63;;;;;;;5.24;82.26;98572.46;1729084;82;21035;-73
2021/11/28 01:03:35;;;;;;;30.57;23.38;;;;;;;5.30;82.31;98573.88;1706239;84;21222;-73
2021/11/28 01:06:03;;;;;;;29.12;23.45;;;;;;;5.32;82.03;98576.59;1681651;84;21564;-77
2021/11/28 01:08:31;;;;;;;29.63;21.35;;;;;;;5.36;82.04;98576.39;1706123;84;21037;-78
2021/11/28 01:10:59;;;;;;;27.37;20.77;;;;;;;5.34;81.84;98571.81;1706004;84;21559;-80
2021/11/28 01:13:28;;;;;;;31.52;20.17;;;;;;;5.33;81.94;98566.72;1681105;84;21054;-79
2021/11/28 01:15:55;;;;;;;30.62;22.62;;;;;;;5.38;81.95;98573.46;1706140;84;21076;-82
2021/11/28 01:18:23;;;;;;;29.05;22.02;;;;;;;5.39;81.75;98575.08;1681344;84;21552;-76
2021/11/28 01:20:50;;;;;;;26.52;20.65;;;;;;;5.37;81.71;98573.98;1700283;83;21094;-74
2021/11/28 01:23:18;;;;;;;31.42;26.35;;;;;;;5.36;81.60;98570.25;1705275;83;21102;-74
2021/11/28 01:25:45;;;;;;;26.42;22.67;;;;;;;5.33;81.50;98577.38;1680996;84;21140;-77
2021/11/28 01:28:12;;;;;;;28.80;21.80;;;;;;;5.29;81.59;98577.06;1680557;84;21029;-76
2021/11/28 01:30:39;;;;;;;24.98;21.37;;;;;;;5.27;81.75;98582.63;1681061;84;21524;-76
2021/11/28 01:33:06;;;;;;;27.67;18.50;;;;;;;5.28;81.92;98580.25;1705690;83;21030;-76
2021/11/28 01:35:35;;;;;;;25.75;20.15;;;;;;;5.29;81.76;98589.06;1705468;84;21560;-76
2021/11/28 01:38:05;;;;;;;28.98;20.90;;;;;;;5.34;81.92;98582.48;1681246;84;21359;-78
2021/11/28 01:40:32;;;;;;;27.10;21.07;;;;;;;5.39;82.03;98579.89;1705778;84;21409;-81
2021/11/28 01:43:03;;;;;;;19.95;15.88;;;;;;;5.43;82.03;98578.88;1705559;84;21595;-80
2021/11/28 01:45:31;;;;;;;21.35;15.83;;;;;;;5.35;80.90;98573.44;1657623;84;21021;-78
2021/11/28 01:48:03;;;;;;;24.02;17.90;;;;;;;5.11;80.22;98571.47;1704740;84;21030;-74
2021/11/28 01:50:32;;;;;;;24.90;19.25;;;;;;;4.85;80.03;98568.08;1653221;84;21066;-76
2021/11/28 01:53:01;;;;;;;23.38;17.32;;;;;;;4.64;80.21;98570.92;1652933;85;22115;-77
2021/11/28 01:55:31;;;;;;;26.90;21.02;;;;;;;4.58;80.97;98564.40;1704362;84;20995;-78
2021/11/28 01:58:00;;;;;;;42.10;24.57;;;;;;;4.57;81.51;98572.09;1705138;84;20982;-75
2021/11/28 02:00:31;;;;;;;37.53;28.83;;;;;;;4.56;82.12;98580.61;1676541;84;21084;-76
2021/11/28 02:02:59;;;;;;;33.70;26.35;;;;;;;4.56;82.65;98565.15;1705662;84;21545;-78
2021/11/28 02:05:29;;;;;;;35.38;24.37;;;;;;;4.55;83.12;98563.04;1685609;84;21822;-76
2021/11/28 02:07:57;;;;;;;29.02;22.80;;;;;;;4.61;83.68;98568.72;1702134;82;20890;-79
2021/11/28 02:10:24;;;;;;;25.95;18.75;;;;;;;4.71;84.18;98574.75;1735968;82;21638;-74
2021/11/28 02:12:52;;;;;;;27.73;21.57;;;;;;;4.76;83.75;98581.50;1736092;82;20957;-77
2021/11/28 02:15:21;;;;;;;28.73;21.35;;;;;;;4.63;82.93;98586.61;1735721;82;21028;-78
2021/11/28 02:17:52;;;;;;;28.60;24.32;;;;;;;4.58;82.65;98591.84;1735847;82;21131;-75
2021/11/28 02:20:21;;;;;;;30.17;24.40;;;;;;;4.48;82.44;98594.83;1736024;82;21064;-76
2021/11/28 02:22:49;;;;;;;33.28;25.02;;;;;;;4.45;82.77;98584.66;1714807;82;21601;-75
2021/11/28 02:25:16;;;;;;;29.40;22.40;;;;;;;4.44;83.78;98573.72;1733764;82;20985;-74
2021/11/28 02:27:45;;;;;;;35.45;26.75;;;;;;;4.43;84.24;98574.24;1690709;82;21084;-77
2021/11/28 02:30:14;;;;;;;31.85;25.40;;;;;;;4.39;84.59;98572.58;1739368;82;21117;-75
2021/11/28 02:32:42;;;;;;;23.07;18.60;;;;;;;4.39;84.99;98575.25;1736381;82;21074;-76
2021/11/28 02:35:08;;;;;;;30.32;23.25;;;;;;;4.36;84.24;98570.38;1736305;82;21036;-75
2021/11/28 02:37:35;;;;;;;52.27;37.13;;;;;;;4.32;84.15;98563.91;1735700;82;21572;-74
2021/11/28 02:40:06;;;;;;;26.50;21.60;;;;;;;4.34;84.02;98556.52;1735411;82;20973;-75
2021/11/28 02:42:33;;;;;;;32.20;22.87;;;;;;;4.38;83.81;98560.84;1707679;83;21073;-76
2021/11/28 02:45:00;;;;;;;34.10;28.32;;;;;;;4.39;83.61;98561.94;1711039;82;21586;-75
2021/11/28 02:47:29;;;;;;;34.43;25.75;;;;;;;4.39;83.35;98562.45;1713794;82;22294;-77
2021/11/28 02:49:56;;;;;;;34.20;26.40;;;;;;;4.38;83.71;98547.53;1735804;82;20998;-76
2021/11/28 02:52:26;;;;;;;36.05;24.10;;;;;;;4.31;83.86;98547.69;1736031;82;21577;-76
2021/11/28 02:54:53;;;;;;;38.23;25.95;;;;;;;4.28;83.87;98547.33;1714540;82;21914;-77
2021/11/28 02:57:20;;;;;;;33.48;27.75;;;;;;;4.22;83.67;98541.09;1735712;82;21076;-76
2021/11/28 02:59:48;;;;;;;33.15;25.25;;;;;;;4.16;83.58;98546.06;1736006;82;20945;-76
2021/11/28 03:02:15;;;;;;;37.60;26.75;;;;;;;4.18;83.85;98540.48;1711108;82;21073;-76
2021/11/28 03:05:01;;;;;;;32.03;24.30;;;;;;;4.29;84.22;98527.14;1741071;81;21602;-77
2021/11/28 03:07:28;;;;;;;36.58;28.80;;;;;;;4.29;84.22;98527.14;1769854;81;21464;-76
2021/11/28 03:09:57;;;;;;;34.08;25.80;;;;;;;4.36;84.35;98533.12;1742577;81;21002;-77
2021/11/28 03:12:24;;;;;;;32.45;23.75;;;;;;;4.37;84.26;98548.05;1714526;82;20982;-75
2021/11/28 03:14:51;;;;;;;31.97;27.30;;;;;;;4.40;84.46;98541.45;1735191;82;21094;-75
2021/11/28 03:17:19;;;;;;;36.45;29.12;;;;;;;4.35;84.16;98552.81;1753096;81;21014;-76
2021/11/28 03:19:48;;;;;;;34.48;27.77;;;;;;;4.25;84.22;98551.29;1741465;81;21058;-75
2021/11/28 03:22:16;;;;;;;44.75;33.95;;;;;;;4.22;84.38;98549.08;1766313;80;20978;-75
2021/11/28 03:24:43;;;;;;;42.53;30.02;;;;;;;4.22;84.38;98549.08;1768919;81;20997;-76
2021/11/28 03:27:10;;;;;;;34.30;26.02;;;;;;;4.23;84.84;98539.25;1768573;81;20990;-77
2021/11/28 03:29:38;;;;;;;29.32;23.65;;;;;;;4.23;84.84;98539.25;1768411;80;21045;-76
2021/11/28 03:32:08;;;;;;;33.08;22.80;;;;;;;4.28;84.97;98542.82;1762705;81;21167;-75
2021/11/28 03:34:36;;;;;;;30.60;22.90;;;;;;;4.37;85.23;98548.56;1735132;82;20978;-77
2021/11/28 03:37:07;;;;;;;31.80;24.47;;;;;;;4.41;85.25;98548.41;1722722;81;20946;-78
2021/11/28 03:39:34;;;;;;;34.40;24.50;;;;;;;4.45;85.25;98554.86;1742580;81;21026;-78
2021/11/28 03:42:06;;;;;;;38.10;27.75;;;;;;;4.47;85.23;98567.39;1742049;81;21590;-80
2021/11/28 03:44:34;;;;;;;49.55;32.70;;;;;;;4.44;85.11;98572.39;1742978;81;21097;-79
2021/11/28 03:47:05;;;;;;;57.38;37.28;;;;;;;4.37;85.22;98580.50;1769842;81;20963;-81
2021/11/28 03:49:32;;;;;;;51.20;31.70;;;;;;;4.30;85.50;98585.98;1743471;81;20993;-80
2021/11/28 03:52:03;;;;;;;52.33;33.83;;;;;;;4.35;85.90;98588.75;1737409;82;21488;-78
2021/11/28 03:54:31;;;;;;;50.55;35.35;;;;;;;4.47;86.41;98587.88;1737506;82;20995;-79
2021/11/28 03:56:58;;;;;;;63.98;44.00;;;;;;;4.60;86.47;98595.61;1734247;82;21183;-82
2021/11/28 03:59:27;;;;;;;54.33;36.00;;;;;;;4.67;86.25;98600.25;1734154;82;20967;-79
2021/11/28 04:01:56;;;;;;;64.82;44.38;;;;;;;4.63;85.52;98585.28;1686007;82;21016;-81
2021/11/28 04:04:24;;;;;;;81.47;47.58;;;;;;;4.57;84.99;98594.20;1714936;82;21149;-81
2021/11/28 04:07:11;;;;;;;82.22;47.67;;;;;;;4.46;84.49;98595.05;1735708;82;22183;-78
2021/11/28 04:09:39;;;;;;;98.30;53.83;;;;;;;4.29;83.99;98601.66;1735969;82;21204;-78
2021/11/28 04:12:09;;;;;;;74.85;44.50;;;;;;;4.18;84.15;98604.34;1730578;82;21119;-78
2021/11/28 04:14:38;;;;;;;68.55;38.73;;;;;;;4.17;84.65;98606.73;1714771;82;20976;-78
2021/11/28 04:17:06;;;;;;;64.47;37.78;;;;;;;4.24;85.15;98614.86;1714690;82;21072;-78
2021/11/28 04:19:36;;;;;;;68.15;38.30;;;;;;;4.35;85.58;98603.91;1734579;82;20937;-78
2021/11/28 04:22:04;;;;;;;66.17;39.05;;;;;;;4.53;85.92;98601.58;1676821;82;21943;-80
2021/11/28 04:24:31;;;;;;;67.82;44.75;;;;;;;4.59;85.81;98601.45;1711295;82;21533;-79
2021/11/28 04:26:59;;;;;;;69.75;44.00;;;;;;;4.59;85.81;98601.45;1736485;82;20997;-74
2021/11/28 04:29:26;;;;;;;77.35;46.55;;;;;;;4.60;85.53;98583.10;1736362;82;21015;-77
2021/11/28 04:31:54;;;;;;;65.17;42.40;;;;;;;4.56;85.12;98573.95;1735803;82;21092;-75
2021/11/28 04:34:21;;;;;;;61.48;36.53;;;;;;;4.54;85.14;98569.41;1735414;82;21236;-76
2021/11/28 04:36:49;;;;;;;42.78;31.23;;;;;;;4.50;85.23;98563.47;1714530;82;21060;-75
2021/11/28 04:39:16;;;;;;;41.85;29.85;;;;;;;4.45;85.26;98550.88;1715081;82;21565;-75
2021/11/28 04:41:43;;;;;;;43.75;32.35;;;;;;;4.41;85.42;98559.57;1714688;82;21509;-76
2021/11/28 04:44:12;;;;;;;41.50;30.70;;;;;;;4.37;85.57;98551.23;1706717;82;21087;-77
2021/11/28 04:46:40;;;;;;;40.70;29.40;;;;;;;4.35;85.76;98557.33;1714737;82;21090;-76
2021/11/28 04:49:08;;;;;;;39.27;28.77;;;;;;;4.28;85.72;98560.64;1714702;81;20930;-80
2021/11/28 04:51:36;;;;;;;50.40;32.03;;;;;;;4.12;85.79;98567.53;1735760;82;21204;-79
2021/11/28 04:54:05;;;;;;;47.03;30.50;;;;;;;4.12;85.79;98567.53;1725933;82;21010;-76
2021/11/28 04:56:33;;;;;;;82.88;49.53;;;;;;;4.06;85.65;98566.33;1691721;82;21600;-76
2021/11/28 04:59:01;;;;;;;69.42;44.58;;;;;;;3.96;85.48;98584.22;1688953;84;21088;-75
2021/11/28 05:01:31;;;;;;;61.53;38.58;;;;;;;4.00;86.01;98576.56;1689154;83;21074;-82
2021/11/28 05:04:00;;;;;;;51.48;35.68;;;;;;;3.97;85.61;98573.88;1673899;82;21524;-81
2021/11/28 05:06:40;;;;;;;53.85;37.42;;;;;;;3.97;85.61;98573.88;1703170;82;21500;-82
2021/11/28 05:09:15;;;;;;;44.85;29.87;;;;;;;3.92;86.01;98584.40;1734378;82;21043;-81
2021/11/28 05:11:44;;;;;;;44.65;33.02;;;;;;;3.85;86.27;98584.52;1707113;82;21528;-82
2021/11/28 05:14:10;;;;;;;48.83;32.35;;;;;;;3.74;86.58;98582.67;1733562;82;21029;-83
2021/11/28 05:16:40;;;;;;;60.10;41.23;;;;;;;3.66;86.80;98581.70;1707020;82;21051;-84
2021/11/28 05:19:12;;;;;;;;;;;;;;;3.63;87.15;98590.67;1735229;82;21074;-83
2021/11/28 05:21:57;;;;;;;55.92;41.00;;;;;;;3.67;87.21;98593.15;1734411;82;20174;-78
2021/11/28 05:24:24;;;;;;;49.45;36.30;;;;;;;3.65;87.15;98593.38;1699610;84;21591;-76
2021/11/28 05:26:54;;;;;;;59.20;37.43;;;;;;;3.70;87.18;98596.66;1707919;82;21002;-75
2021/11/28 05:29:21;;;;;;;41.05;29.75;;;;;;;3.72;87.04;98599.91;1742576;81;21093;-75
2021/11/28 05:31:49;;;;;;;45.60;36.03;;;;;;;3.68;86.78;98596.10;1768761;81;21011;-76
2021/11/28 05:34:17;;;;;;;39.15;30.23;;;;;;;3.60;86.83;98605.22;1743781;81;21058;-75
2021/11/28 05:37:03;;;;;;;40.28;29.48;;;;;;;3.54;86.84;98598.19;1742157;81;21833;-75
2021/11/28 05:39:30;;;;;;;46.02;35.55;;;;;;;3.37;87.19;98606.55;1768943;80;21014;-74
2021/11/28 05:41:58;;;;;;;46.55;35.75;;;;;;;3.26;87.62;98607.36;1769777;80;20971;-75
2021/11/28 05:44:26;;;;;;;45.30;32.38;;;;;;;3.17;88.08;98604.20;1767088;80;21518;-77
2021/11/28 05:47:14;;;;;;;48.33;35.17;;;;;;;3.10;88.53;98602.70;1764834;81;21019;-75
2021/11/28 05:49:58;;;;;;;67.70;44.75;;;;;;;3.07;88.97;98602.11;1705621;82;21924;-75
2021/11/28 05:52:36;;;;;;;57.20;39.50;;;;;;;2.97;88.82;98599.20;1701520;82;21036;-75
2021/11/28 05:55:05;;;;;;;48.95;33.48;;;;;;;2.89;88.95;98610.16;1696545;84;21055;-76
2021/11/28 05:57:34;;;;;;;55.43;33.65;;;;;;;2.78;88.91;98602.17;1722324;82;21082;-75
2021/11/28 06:00:03;;;;;;;55.80;36.53;;;;;;;2.64;88.96;98607.64;1734612;82;21050;-75
2021/11/28 06:02:31;;;;;;;43.85;31.20;;;;;;;2.53;89.20;98604.45;1707223;82;21095;-76
2021/11/28 06:05:00;;;;;;;50.25;32.33;;;;;;;2.50;89.50;98606.20;1729640;82;20907;-77
2021/11/28 06:07:38;;;;;;;48.63;32.00;;;;;;;2.42;89.62;98611.83;1715162;82;21494;-76
2021/11/28 06:10:07;;;;;;;58.23;32.13;;;;;;;2.38;90.01;98611.98;1734899;82;21038;-76
2021/11/28 06:12:36;;;;;;;51.55;30.92;;;;;;;2.29;90.18;98608.02;1710107;82;21015;-80
2021/11/28 06:15:05;;;;;;;48.40;31.45;;;;;;;2.25;90.48;98607.37;1720477;82;21416;-76
2021/11/28 06:17:35;;;;;;;45.55;28.25;;;;;;;2.16;90.74;98611.63;1711779;82;20987;-75
2021/11/28 06:20:10;;;;;;;33.05;22.65;;;;;;;2.04;91.38;98613.92;1640849;82;21488;-75
2021/11/28 06:22:56;;;;;;;33.73;23.18;;;;;;;1.97;91.65;98616.64;1710540;82;21000;-76
2021/11/28 06:25:24;;;;;;;26.02;18.80;;;;;;;2.00;92.14;98614.08;1694895;83;21102;-75
2021/11/28 06:27:53;;;;;;;23.10;17.55;;;;;;;2.05;92.36;98608.92;1717709;82;21517;-76
2021/11/28 06:30:20;;;;;;;24.67;15.78;;;;;;;2.10;92.41;98611.21;1733238;82;20971;-76
2021/11/28 06:32:48;;;;;;;18.42;14.07;;;;;;;2.07;92.34;98597.05;1624308;82;21008;-74
2021/11/28 06:35:23;;;;;;;17.67;14.30;;;;;;;2.05;92.27;98593.02;1647663;82;21074;-77
2021/11/28 06:38:02;;;;;;;16.35;14.65;;;;;;;2.02;92.39;98594.77;1700725;82;21090;-76
2021/11/28 06:40:32;;;;;;;14.93;11.93;;;;;;;1.85;92.66;98602.52;1673315;82;21079;-77
2021/11/28 06:43:01;;;;;;;16.80;13.75;;;;;;;1.80;93.34;98601.03;1733258;82;20947;-78
2021/11/28 06:45:29;;;;;;;15.23;12.47;;;;;;;1.77;93.78;98604.64;1733078;82;20951;-76
2021/11/28 06:47:56;;;;;;;14.98;12.07;;;;;;;1.81;94.28;98605.83;1733145;82;20983;-77
2021/11/28 06:50:23;;;;;;;14.43;11.90;;;;;;;1.86;94.75;98607.30;1726940;82;21067;-76
2021/11/28 06:52:55;;;;;;;12.82;11.03;;;;;;;1.90;95.02;98600.52;1675330;84;21085;-76
2021/11/28 06:55:26;;;;;;;12.05;10.35;;;;;;;1.97;95.43;98609.20;1678612;84;20963;-75
2021/11/28 06:58:11;;;;;;;11.43;9.68;;;;;;;1.89;95.33;98620.92;1701639;84;22021;-76
2021/11/28 07:00:38;;;;;;;13.70;10.30;;;;;;;1.86;95.67;98619.23;1705431;82;21058;-77
2021/11/28 07:03:05;;;;;;;12.47;11.18;;;;;;;1.86;95.90;98625.86;1709961;82;21139;-76
2021/11/28 07:05:38;;;;;;;13.40;12.00;;;;;;;1.87;96.24;98623.51;1683958;82;21854;-77
2021/11/28 07:08:07;;;;;;;13.38;12.00;;;;;;;1.89;96.42;98621.43;1706117;82;21038;-75
2021/11/28 07:10:39;;;;;;;10.38;9.38;;;;;;;1.89;96.66;98623.57;1721169;82;20947;-76
2021/11/28 07:13:08;;;;;;;9.80;8.53;;;;;;;1.90;96.88;98619.08;1678839;84;21003;-79
2021/11/28 07:15:35;;;;;;;12.13;9.98;;;;;;;1.95;97.23;98620.56;1733179;81;20986;-80
2021/11/28 07:18:04;;;;;;;8.63;7.80;;;;;;;2.05;97.61;98629.63;1770598;81;21114;-79
2021/11/28 07:20:51;;;;;;;9.80;8.90;;;;;;;2.14;98.07;98622.98;1657150;85;21078;-79
2021/11/28 07:23:19;;;;;;;9.53;8.58;;;;;;;2.11;97.69;98620.77;1678810;85;21067;-77
2021/11/28 07:25:46;;;;;;;11.18;10.15;;;;;;;2.10;97.91;98619.17;1689002;81;20955;-75
2021/11/28 07:28:28;;;;;;;9.08;8.18;;;;;;;2.06;98.03;98623.81;1722652;81;20987;-78
2021/11/28 07:30:55;;;;;;;8.85;7.62;;;;;;;2.12;98.47;98622.91;1769671;81;22628;-75
2021/11/28 07:33:40;;;;;;;12.82;10.55;;;;;;;2.16;98.98;98617.44;1744849;81;20959;-74
2021/11/28 07:36:26;;;;;;;10.80;9.58;;;;;;;2.17;99.17;98620.40;1745357;81;21058;-76
2021/11/28 07:38:53;;;;;;;22.87;17.90;;;;;;;2.27;99.67;98625.18;1746467;81;21492;-76
2021/11/28 07:41:21;;;;;;;14.50;12.45;;;;;;;2.34;99.97;98627.25;1757720;80;21019;-79
2021/11/28 07:43:53;;;;;;;16.15;11.83;;;;;;;2.43;100.00;98617.44;1717374;81;21105;-81
2021/11/28 07:46:38;;;;;;;10.10;9.20;;;;;;;2.51;100.00;98613.14;1740599;81;21048;-80
2021/11/28 07:49:07;;;;;;;11.93;10.72;;;;;;;2.58;100.00;98612.55;1736403;81;21139;-79
2021/11/28 07:51:34;;;;;;;13.20;11.28;;;;;;;2.60;100.00;98625.06;1749976;81;21047;-77
2021/11/28 07:54:01;;;;;;;12.40;11.10;;;;;;;2.57;100.00;98629.50;1768926;81;21101;-79
2021/11/28 07:56:30;;;;;;;15.00;11.65;;;;;;;2.58;100.00;98627.14;1740209;81;21775;-78
2021/11/28 07:59:15;;;;;;;19.35;14.33;;;;;;;2.50;100.00;98623.97;1751685;81;21105;-80
2021/11/28 08:01:45;;;;;;;22.62;16.40;;;;;;;2.45;100.00;98619.84;1750273;80;21603;-76
2021/11/28 08:04:31;;;;;;;22.70;15.10;;;;;;;2.45;100.00;98615.86;1742595;81;21054;-78
2021/11/28 08:07:16;;;;;;;17.60;13.13;;;;;;;2.50;100.00;98626.11;1762095;81;21014;-82
2021/11/28 08:09:45;;;;;;;18.57;14.80;;;;;;;2.53;100.00;98625.67;1735452;81;20963;-80
2021/11/28 08:12:13;;;;;;;17.40;13.58;;;;;;;2.51;100.00;98625.59;1763853;81;20955;-84
2021/11/28 08:14:40;;;;;;;18.60;14.25;;;;;;;2.51;100.00;98627.73;1768977;81;21019;-78
2021/11/28 08:17:09;;;;;;;18.37;13.85;;;;;;;2.54;100.00;98626.48;1767907;81;21639;-79
2021/11/28 08:19:36;;;;;;;17.07;14.40;;;;;;;2.55;100.00;98624.92;1752763;81;21355;-78
2021/11/28 08:22:03;;;;;;;12.05;10.85;;;;;;;2.53;100.00;98616.39;1754063;81;21769;-80
2021/11/28 08:24:30;;;;;;;15.70;13.48;;;;;;;2.57;100.00;98615.41;1730427;82;21043;-83
2021/11/28 08:26:58;;;;;;;14.50;13.03;;;;;;;2.57;100.00;98608.78;1738508;81;20979;-84
2021/11/28 08:29:27;;;;;;;13.32;12.00;;;;;;;2.59;100.00;98608.05;1772343;81;20947;-88
2021/11/28 08:31:54;;;;;;;14.63;12.98;;;;;;;2.60;100.00;98617.09;1720813;77;20931;-81
2021/11/28 08:34:39;;;;;;;13.58;11.33;;;;;;;2.68;100.00;98631.10;1625389;84;21598;-81
2021/11/28 08:37:11;;;;;;;13.83;12.35;;;;;;;2.77;100.00;98629.23;1686467;81;21039;-82
2021/11/28 08:39:39;;;;;;;15.05;11.97;;;;;;;2.80;100.00;98635.41;1736183;81;20927;-83
2021/11/28 08:42:08;;;;;;;13.00;11.40;;;;;;;2.82;100.00;98632.02;1742815;81;21539;-81
2021/11/28 08:44:37;;;;;;;14.10;11.93;;;;;;;2.91;100.00;98629.85;1768652;80;21033;-82
2021/11/28 08:47:04;;;;;;;17.35;13.85;;;;;;;3.02;100.00;98625.10;1765501;80;21058;-82
2021/11/28 08:49:32;;;;;;;13.60;12.15;;;;;;;3.08;100.00;98633.47;1710405;82;21079;-80
2021/11/28 08:52:01;;;;;;;12.88;11.60;;;;;;;3.10;100.00;98618.64;1735358;82;20991;-78
2021/11/28 08:54:30;;;;;;;18.37;12.65;;;;;;;3.09;100.00;98611.19;1735921;82;21007;-79
2021/11/28 08:56:58;;;;;;;13.65;10.95;;;;;;;3.12;100.00;98601.42;1710789;82;21035;-80
2021/11/28 08:59:27;;;;;;;12.23;10.98;;;;;;;3.15;100.00;98602.83;1762567;81;21152;-79
2021/11/28 09:01:54;;;;;;;14.23;12.70;;;;;;;3.14;100.00;98608.66;1743330;81;21206;-89
2021/11/28 09:04:22;;;;;;;13.53;12.13;;;;;;;3.16;100.00;98600.47;1769220;80;21599;-84
2021/11/28 09:06:51;;;;;;;13.08;10.88;;;;;;;3.20;100.00;98598.97;1742241;81;21101;-85
2021/11/28 09:09:18;;;;;;;13.18;11.75;;;;;;;3.16;100.00;98599.14;1744766;81;20994;-84
2021/11/28 09:11:45;;;;;;;17.57;12.03;;;;;;;3.10;100.00;98594.22;1712339;81;21111;-84
2021/11/28 09:14:12;;;;;;;18.40;14.87;;;;;;;3.19;100.00;98599.48;1763025;81;21081;-82
2021/11/28 09:16:39;;;;;;;19.10;15.68;;;;;;;3.21;100.00;98601.41;1768880;81;21050;-85
2021/11/28 09:19:16;;;;;;;16.93;12.93;;;;;;;3.24;100.00;98603.59;1768475;81;22316;-82
2021/11/28 09:21:36;;;;;;;20.00;16.55;;;;;;;3.30;100.00;98610.66;1741303;81;21019;-78
2021/11/28 09:26:50;;;;;;;12.58;11.35;;;;;;;3.35;100.00;98612.11;1768735;81;21002;-79
2021/11/28 09:29:17;;;;;;;15.98;14.38;;;;;;;3.54;100.00;98614.66;1756134;81;21071;-79
2021/11/28 09:31:47;;;;;;;14.93;12.80;;;;;;;3.64;100.00;98610.39;1713853;81;21043;-79
2021/11/28 09:34:15;;;;;;;15.88;14.28;;;;;;;3.73;100.00;98602.34;1763214;80;21040;-78
2021/11/28 09:36:42;;;;;;;18.15;15.63;;;;;;;3.74;100.00;98600.50;1735147;81;21122;-77
2021/11/28 09:39:09;;;;;;;12.58;11.22;;;;;;;3.69;100.00;98600.39;1766156;80;20986;-80
2021/11/28 09:41:36;;;;;;;17.40;13.62;;;;;;;3.63;100.00;98595.47;1736298;81;21034;-78
2021/11/28 09:44:08;;;;;;;14.98;12.93;;;;;;;3.58;100.00;98596.69;1761353;80;21066;-80
2021/11/28 09:46:37;;;;;;;13.68;12.28;;;;;;;3.51;100.00;98584.02;1754125;81;21469;-79
2021/11/28 09:49:07;;;;;;;13.60;12.03;;;;;;;3.46;100.00;98587.37;1767208;81;22222;-79
2021/11/28 09:51:34;;;;;;;14.60;12.93;;;;;;;3.45;100.00;98578.31;1740385;81;21026;-80
2021/11/28 09:54:06;;;;;;;16.00;13.15;;;;;;;3.48;100.00;98579.98;1731084;82;21357;-84
2021/11/28 09:56:38;;;;;;;16.95;12.63;;;;;;;3.54;100.00;98579.58;1697421;82;21029;-81
2021/11/28 09:59:06;;;;;;;14.35;12.37;;;;;;;3.59;100.00;98588.19;1703117;82;21547;-77
2021/11/28 10:01:35;;;;;;;14.05;12.50;;;;;;;3.67;100.00;98583.84;1718357;81;21106;-83
2021/11/28 10:04:02;;;;;;;17.45;14.30;;;;;;;3.76;100.00;98583.77;1750801;81;21088;-80
2021/11/28 10:06:30;;;;;;;16.52;13.20;;;;;;;3.78;100.00;98580.38;1740990;81;21046;-82
2021/11/28 10:08:59;;;;;;;15.45;12.50;;;;;;;3.82;100.00;98582.85;1770914;80;21038;-86
2021/11/28 10:11:45;;;;;;;14.20;12.23;;;;;;;3.85;100.00;98581.86;1771988;80;21603;-89
2021/11/28 10:14:14;;;;;;;13.40;12.00;;;;;;;3.90;100.00;98578.49;1769049;81;20986;-82
2021/11/28 10:16:41;;;;;;;14.38;12.95;;;;;;;3.92;100.00;98573.77;1743601;81;20994;-85
2021/11/28 10:19:09;;;;;;;16.35;12.88;;;;;;;3.91;100.00;98572.95;1760471;79;21042;-86
2021/11/28 10:21:36;;;;;;;14.75;11.57;;;;;;;3.94;100.00;98572.47;1769590;81;21081;-80
2021/11/28 10:24:11;;;;;;;13.83;12.37;;;;;;;3.99;100.00;98567.77;1770922;81;20955;-82
2021/11/28 10:27:04;;;;;;;14.13;11.97;;;;;;;3.99;100.00;98567.77;1715698;82;21115;-82
2021/11/28 10:29:33;;;;;;;15.38;12.82;;;;;;;4.02;100.00;98579.30;1715799;82;21030;-79
2021/11/28 10:32:01;;;;;;;15.85;13.25;;;;;;;4.09;100.00;98579.95;1764612;81;21079;-79
2021/11/28 10:34:38;;;;;;;14.55;12.07;;;;;;;4.15;100.00;98570.23;1743093;81;21007;-85
2021/11/28 10:37:11;;;;;;;20.48;15.63;;;;;;;4.20;100.00;98563.69;1767561;81;21071;-83
2021/11/28 10:39:46;;;;;;;17.65;13.70;;;;;;;4.28;100.00;98558.79;1767256;81;21049;-85
2021/11/28 10:42:31;;;;;;;20.68;16.37;;;;;;;4.33;100.00;98548.24;1768181;81;21547;-73
2021/11/28 10:45:20;;;;;;;21.62;16.17;;;;;;;4.34;100.00;98550.38;1717706;81;21062;-84
2021/11/28 10:47:56;;;;;;;16.25;14.13;;;;;;;4.37;100.00;98548.05;1769875;81;20958;-81
2021/11/28 10:50:32;;;;;;;16.90;13.28;;;;;;;4.44;100.00;98553.76;1770078;81;20970;-82
2021/11/28 10:53:20;;;;;;;15.68;13.45;;;;;;;4.44;100.00;98547.91;1711072;82;21091;-84
2021/11/28 10:55:46;;;;;;;22.77;18.20;;;;;;;4.55;100.00;98543.59;1696645;84;21025;-84
2021/11/28 10:58:20;;;;;;;39.83;29.67;;;;;;;4.64;100.00;98543.48;1734463;82;20955;-84
2021/11/28 11:00:52;;;;;;;34.95;26.70;;;;;;;4.69;100.00;98548.38;1705833;82;21042;-83
2021/11/28 11:03:32;;;;;;;23.70;17.47;;;;;;;4.78;100.00;98546.13;1728685;81;21067;-83
2021/11/28 11:06:25;;;;;;;20.45;16.30;;;;;;;4.86;100.00;98542.25;1769056;81;21017;-84
2021/11/28 11:09:14;;;;;;;22.30;18.10;;;;;;;4.93;100.00;98541.06;1743020;81;21566;-82
2021/11/28 11:11:43;;;;;;;22.40;17.98;;;;;;;4.93;100.00;98527.74;1737169;82;21665;-86
2021/11/28 11:14:12;;;;;;;22.93;18.05;;;;;;;4.98;100.00;98531.82;1749868;81;20985;-85
2021/11/28 11:16:41;;;;;;;23.73;17.80;;;;;;;5.00;100.00;98525.71;1768816;80;21058;-80
2021/11/28 11:19:35;;;;;;;20.88;18.37;;;;;;;5.07;100.00;98520.23;1768968;81;21109;-82
2021/11/28 11:22:26;;;;;;;21.60;19.20;;;;;;;5.14;100.00;98524.85;1743102;81;21038;-82
2021/11/28 11:25:00;;;;;;;18.00;16.05;;;;;;;5.17;100.00;98532.38;1768740;81;21042;-82
2021/11/28 11:27:34;;;;;;;18.05;15.88;;;;;;;5.16;100.00;98527.57;1769251;81;21100;-81
2021/11/28 11:30:16;;;;;;;19.95;16.25;;;;;;;5.17;100.00;98529.72;1769088;81;20978;-82
2021/11/28 11:33:01;;;;;;;22.00;17.32;;;;;;;5.13;100.00;98525.38;1768829;80;21576;-83
2021/11/28 11:35:39;;;;;;;22.85;18.15;;;;;;;5.18;100.00;98519.34;1769119;81;24790;-82
2021/11/28 11:38:06;;;;;;;21.52;16.90;;;;;;;5.21;100.00;98517.52;1768509;80;20935;-81
2021/11/28 11:40:34;;;;;;;19.92;17.10;;;;;;;5.23;100.00;98523.39;1752468;81;21016;-79
2021/11/28 11:43:01;;;;;;;22.75;19.12;;;;;;;5.20;100.00;98521.22;1743238;81;20931;-80
2021/11/28 11:45:31;;;;;;;20.23;17.95;;;;;;;5.22;100.00;98530.61;1768926;81;21137;-82
2021/11/28 11:47:59;;;;;;;22.87;18.80;;;;;;;5.32;100.00;98525.14;1742384;81;20939;-80
2021/11/28 11:50:27;;;;;;;22.93;20.20;;;;;;;5.36;100.00;98531.59;1760528;81;20948;-83